Time;durP1;ratioP1;P1;durP2;ratioP2;P2;SDS_P1;SDS_P2;PMS_P1;PMS_P2;Temp;Humidity;BMP_temperature;BMP_pressure;BME280_temperature;BME280_humidity;BME280_pressure;Samples;Min_cycle;Max_cycle;Signal;HPM_P1;HPM_P2
2023/06/06 00:01:27;;;;;;;7.67;6.20;;;14.20;99.90;;;;;;4986524;28;20524;-64
2023/06/06 00:03:55;;;;;;;6.37;5.77;;;14.20;99.90;;;;;;4989398;28;20493;-64
2023/06/06 00:06:25;;;;;;;6.37;5.77;;;14.10;99.90;;;;;;4990355;28;20473;-63
2023/06/06 00:08:53;;;;;;;6.90;5.80;;;14.10;99.90;;;;;;4996970;28;20558;-64
2023/06/06 00:11:21;;;;;;;6.60;5.97;;;14.00;99.90;;;;;;4989666;28;20493;-64
2023/06/06 00:13:50;;;;;;;6.33;5.80;;;14.00;99.90;;;;;;4995773;28;20586;-63
2023/06/06 00:16:19;;;;;;;6.97;5.90;;;14.00;99.90;;;;;;4992042;28;20476;-64
2023/06/06 00:18:50;;;;;;;6.17;5.67;;;14.00;99.90;;;;;;4993217;28;20492;-63
2023/06/06 00:21:18;;;;;;;7.17;6.40;;;13.90;99.90;;;;;;4991497;28;20510;-64
2023/06/06 00:23:47;;;;;;;6.87;6.27;;;13.90;99.90;;;;;;4990833;28;20498;-64
2023/06/06 00:26:15;;;;;;;7.20;6.60;;;13.80;99.90;;;;;;4993344;28;20477;-64
2023/06/06 00:28:43;;;;;;;7.10;6.50;;;13.80;99.90;;;;;;4994990;28;21000;-63
2023/06/06 00:31:12;;;;;;;6.83;6.27;;;13.70;99.90;;;;;;4990155;28;22885;-64
2023/06/06 00:33:40;;;;;;;6.93;6.20;;;13.70;99.90;;;;;;4987204;28;20501;-64
2023/06/06 00:36:08;;;;;;;7.27;6.57;;;13.70;99.90;;;;;;4992263;28;20469;-63
2023/06/06 00:38:36;;;;;;;6.60;5.90;;;13.70;99.90;;;;;;4997928;28;20499;-64
2023/06/06 00:41:04;;;;;;;6.33;5.73;;;13.70;99.90;;;;;;4987202;28;20561;-64
2023/06/06 00:43:32;;;;;;;8.27;6.20;;;13.60;99.90;;;;;;4997752;28;20483;-63
2023/06/06 00:46:01;;;;;;;7.13;6.53;;;13.60;99.90;;;;;;5000155;28;20612;-64
2023/06/06 00:48:30;;;;;;;7.27;6.57;;;13.50;99.90;;;;;;4998710;28;20559;-63
2023/06/06 00:51:00;;;;;;;7.40;6.63;;;13.50;99.90;;;;;;4989345;28;20524;-64
2023/06/06 00:53:28;;;;;;;7.00;6.30;;;13.40;99.90;;;;;;4992686;28;20797;-63
2023/06/06 00:55:57;;;;;;;6.70;6.10;;;13.40;99.90;;;;;;4993297;28;21083;-63
2023/06/06 00:58:27;;;;;;;7.17;6.57;;;13.40;99.90;;;;;;4995061;28;20670;-63
2023/06/06 01:00:58;;;;;;;6.80;6.20;;;13.40;99.90;;;;;;4993888;28;20560;-63
2023/06/06 01:03:26;;;;;;;6.80;6.20;;;13.30;99.90;;;;;;4991667;28;20532;-63
2023/06/06 01:05:56;;;;;;;7.30;6.37;;;13.30;99.90;;;;;;4993545;28;20495;-63
2023/06/06 01:08:24;;;;;;;6.90;6.37;;;13.30;99.90;;;;;;4991970;28;20495;-63
2023/06/06 01:11:00;;;;;;;6.50;6.00;;;13.30;99.90;;;;;;4997017;28;20482;-63
2023/06/06 01:13:35;;;;;;;7.13;6.53;;;13.20;99.90;;;;;;5004358;28;20523;-66
2023/06/06 01:16:13;;;;;;;6.53;6.03;;;13.20;99.90;;;;;;5023198;28;20455;-64
2023/06/06 01:18:42;;;;;;;7.10;6.50;;;13.20;99.90;;;;;;5011130;28;20505;-64
2023/06/06 01:21:11;;;;;;;7.13;6.43;;;13.20;99.90;;;;;;5000557;28;20571;-64
2023/06/06 01:23:43;;;;;;;6.87;6.20;;;13.20;99.90;;;;;;4993224;28;20493;-64
2023/06/06 01:26:12;;;;;;;7.60;6.90;;;13.10;99.90;;;;;;4998121;28;20468;-64
2023/06/06 01:28:40;;;;;;;11.30;7.03;;;13.10;99.90;;;;;;4997660;28;20471;-64
2023/06/06 01:31:15;;;;;;;7.10;6.40;;;13.00;99.90;;;;;;4992916;28;20484;-64
2023/06/06 01:33:47;;;;;;;6.60;6.00;;;13.00;99.90;;;;;;4996572;28;20933;-64
2023/06/06 01:36:23;;;;;;;6.03;5.43;;;13.00;99.90;;;;;;4996660;28;20835;-63
2023/06/06 01:38:56;;;;;;;7.37;6.70;;;13.00;99.90;;;;;;4996351;28;20619;-63
2023/06/06 01:41:26;;;;;;;7.10;6.50;;;12.90;99.90;;;;;;4998825;28;20488;-63
2023/06/06 01:43:56;;;;;;;7.27;6.50;;;12.90;99.90;;;;;;4993788;28;20487;-64
2023/06/06 01:46:26;;;;;;;7.20;6.50;;;13.00;99.90;;;;;;4998373;28;20558;-64
2023/06/06 01:48:56;;;;;;;6.63;5.90;;;12.90;99.90;;;;;;5019801;28;20465;-63
2023/06/06 01:51:26;;;;;;;7.43;6.73;;;12.90;99.90;;;;;;5004755;28;20536;-63
2023/06/06 01:53:58;;;;;;;6.73;6.13;;;12.90;99.90;;;;;;4998801;28;20546;-63
2023/06/06 01:56:28;;;;;;;7.00;6.13;;;12.80;99.90;;;;;;4997486;28;20476;-64
2023/06/06 01:58:56;;;;;;;8.67;6.43;;;12.80;99.90;;;;;;4997025;28;20488;-63
2023/06/06 02:01:24;;;;;;;7.30;6.60;;;12.80;99.90;;;;;;4995528;28;21052;-63
2023/06/06 02:03:52;;;;;;;9.40;6.50;;;12.80;99.90;;;;;;4992097;28;20491;-63
2023/06/06 02:06:21;;;;;;;7.13;6.53;;;12.70;99.90;;;;;;4994936;28;20542;-66
2023/06/06 02:08:49;;;;;;;7.37;6.67;;;12.70;99.90;;;;;;4997411;28;20502;-63
2023/06/06 02:11:19;;;;;;;6.57;5.97;;;12.70;99.90;;;;;;4993515;28;20909;-63
2023/06/06 02:13:47;;;;;;;7.43;6.73;;;12.60;99.90;;;;;;4995427;28;20559;-63
2023/06/06 02:16:16;;;;;;;8.30;6.87;;;12.60;99.90;;;;;;4995962;28;20987;-64
2023/06/06 02:18:45;;;;;;;7.33;6.73;;;12.60;99.90;;;;;;4995444;28;20503;-64
2023/06/06 02:21:13;;;;;;;7.47;6.77;;;12.60;99.90;;;;;;4996851;28;20495;-64
2023/06/06 02:23:41;;;;;;;7.90;7.27;;;12.60;99.90;;;;;;4996353;28;20497;-63
2023/06/06 02:26:10;;;;;;;7.80;7.10;;;12.60;99.90;;;;;;4991686;28;20468;-64
2023/06/06 02:28:39;;;;;;;7.10;6.50;;;12.50;99.90;;;;;;4998981;28;20473;-63
2023/06/06 02:31:08;;;;;;;7.40;6.80;;;12.50;99.90;;;;;;4994706;28;20578;-64
2023/06/06 02:33:37;;;;;;;7.63;6.93;;;12.40;99.90;;;;;;4993627;28;21039;-64
2023/06/06 02:36:06;;;;;;;7.70;7.00;;;12.40;99.90;;;;;;4996072;28;20611;-63
2023/06/06 02:38:34;;;;;;;7.83;7.03;;;12.40;99.90;;;;;;4996706;28;20484;-63
2023/06/06 02:41:02;;;;;;;8.37;7.23;;;12.40;99.90;;;;;;4985100;28;21115;-63
2023/06/06 02:43:30;;;;;;;7.53;6.93;;;12.40;99.90;;;;;;4995657;28;20503;-64
2023/06/06 02:45:59;;;;;;;8.20;7.50;;;12.40;99.90;;;;;;4993872;28;20924;-64
2023/06/06 02:48:27;;;;;;;7.80;7.10;;;12.30;99.90;;;;;;4990344;28;20474;-63
2023/06/06 02:50:56;;;;;;;9.07;8.20;;;12.30;99.90;;;;;;4994310;28;21044;-63
2023/06/06 02:53:24;;;;;;;8.80;8.00;;;12.30;99.90;;;;;;4992475;28;21092;-64
2023/06/06 02:55:52;;;;;;;8.37;7.50;;;12.30;99.90;;;;;;4998049;28;20475;-63
2023/06/06 02:58:28;;;;;;;8.40;7.53;;;12.30;99.90;;;;;;4995647;28;20567;-63
2023/06/06 03:00:56;;;;;;;9.00;8.20;;;12.30;99.90;;;;;;5003663;28;21104;-63
2023/06/06 03:03:26;;;;;;;8.43;7.60;;;12.30;99.90;;;;;;5001276;28;21087;-64
2023/06/06 03:05:57;;;;;;;8.53;7.40;;;12.30;99.90;;;;;;4992714;28;20488;-63
2023/06/06 03:08:25;;;;;;;8.27;7.50;;;12.30;99.90;;;;;;4992530;28;20478;-63
2023/06/06 03:10:53;;;;;;;8.60;7.83;;;12.30;99.90;;;;;;4994410;28;20556;-63
2023/06/06 03:13:21;;;;;;;7.90;6.90;;;12.20;99.90;;;;;;4998332;28;20551;-64
2023/06/06 03:15:49;;;;;;;8.43;7.63;;;12.20;99.90;;;;;;4998572;28;21016;-64
2023/06/06 03:18:20;;;;;;;8.43;7.63;;;12.20;99.90;;;;;;5002906;28;20472;-63
2023/06/06 03:20:51;;;;;;;8.50;7.70;;;12.20;99.90;;;;;;5020744;28;20473;-63
2023/06/06 03:23:20;;;;;;;8.87;7.93;;;12.20;99.90;;;;;;5009471;28;20864;-64
2023/06/06 03:25:51;;;;;;;8.60;7.70;;;12.20;99.90;;;;;;4998621;28;20962;-63
2023/06/06 03:28:20;;;;;;;8.03;7.33;;;12.10;99.90;;;;;;4999472;28;20480;-64
2023/06/06 03:30:48;;;;;;;9.10;7.80;;;12.10;99.90;;;;;;4995874;28;20485;-64
2023/06/06 03:33:16;;;;;;;8.40;7.60;;;12.20;99.90;;;;;;4988483;28;20496;-63
2023/06/06 03:35:45;;;;;;;9.17;8.37;;;12.20;99.90;;;;;;4995673;28;20508;-63
2023/06/06 03:38:14;;;;;;;9.30;8.30;;;12.20;99.90;;;;;;4998297;28;20472;-63
2023/06/06 03:40:42;;;;;;;8.80;7.90;;;12.20;99.90;;;;;;4989711;28;20496;-63
2023/06/06 03:43:10;;;;;;;9.03;8.23;;;12.20;99.90;;;;;;4989497;28;20507;-64
2023/06/06 03:45:38;;;;;;;10.13;8.90;;;12.20;99.90;;;;;;4987322;28;20571;-63
2023/06/06 03:48:09;;;;;;;7.70;7.00;;;12.20;99.90;;;;;;4993230;28;20468;-63
2023/06/06 03:50:37;;;;;;;8.13;7.43;;;12.20;99.90;;;;;;4988064;28;20559;-63
2023/06/06 03:53:05;;;;;;;8.30;7.60;;;12.20;99.90;;;;;;4987087;28;20542;-63
2023/06/06 03:55:34;;;;;;;8.73;7.93;;;12.20;99.90;;;;;;4992756;28;20483;-63
2023/06/06 03:58:03;;;;;;;8.60;7.80;;;12.20;99.90;;;;;;4989812;28;20483;-64
2023/06/06 04:00:31;;;;;;;8.03;7.23;;;12.20;99.90;;;;;;4991159;28;20525;-63
2023/06/06 04:02:59;;;;;;;9.17;8.30;;;12.20;99.90;;;;;;4987008;28;20998;-63
2023/06/06 04:05:27;;;;;;;8.40;7.70;;;12.20;99.90;;;;;;4987348;28;20476;-63
2023/06/06 04:07:55;;;;;;;8.53;7.73;;;12.20;99.90;;;;;;4986401;28;20865;-63
2023/06/06 04:10:23;;;;;;;8.37;7.57;;;12.30;99.90;;;;;;4997031;28;20473;-63
2023/06/06 04:12:52;;;;;;;8.97;8.17;;;12.30;99.90;;;;;;5004018;28;20527;-63
2023/06/06 04:15:20;;;;;;;9.57;8.60;;;12.30;99.90;;;;;;5022864;28;20466;-62
2023/06/06 04:17:48;;;;;;;9.60;8.60;;;12.40;99.90;;;;;;5016081;28;20482;-64
2023/06/06 04:20:16;;;;;;;10.03;8.60;;;12.40;99.90;;;;;;5002746;28;20515;-64
2023/06/06 04:22:45;;;;;;;9.23;8.33;;;12.40;99.90;;;;;;4998210;28;20492;-63
2023/06/06 04:25:15;;;;;;;9.10;8.20;;;12.50;99.90;;;;;;5002379;28;20915;-63
2023/06/06 04:27:44;;;;;;;8.93;8.07;;;12.50;99.90;;;;;;4999830;28;20560;-63
2023/06/06 04:30:14;;;;;;;9.30;8.33;;;12.60;99.90;;;;;;5000422;28;20467;-63
2023/06/06 04:32:43;;;;;;;10.03;8.97;;;12.60;99.90;;;;;;4996892;28;20914;-63
2023/06/06 04:35:11;;;;;;;9.67;8.77;;;12.60;99.90;;;;;;4991350;28;20473;-64
2023/06/06 04:37:40;;;;;;;9.27;8.33;;;12.70;99.90;;;;;;4996472;28;20531;-63
2023/06/06 04:40:10;;;;;;;9.47;8.57;;;12.70;99.90;;;;;;5000850;28;20570;-64
2023/06/06 04:42:40;;;;;;;8.73;7.93;;;12.80;99.90;;;;;;4995819;28;20527;-64
2023/06/06 04:45:09;;;;;;;13.53;9.13;;;12.80;99.90;;;;;;4996614;28;20476;-63
2023/06/06 04:47:40;;;;;;;10.63;9.57;;;12.90;99.90;;;;;;4994088;28;20555;-63
2023/06/06 04:50:09;;;;;;;10.57;9.17;;;12.90;99.90;;;;;;4988381;28;20470;-63
2023/06/06 04:52:37;;;;;;;9.87;8.87;;;13.00;99.90;;;;;;4987349;28;20496;-63
2023/06/06 04:55:07;;;;;;;10.50;9.30;;;13.00;99.90;;;;;;4992600;28;20524;-64
2023/06/06 04:57:36;;;;;;;11.70;9.93;;;13.10;99.90;;;;;;4989440;28;20483;-64
2023/06/06 05:00:06;;;;;;;10.67;9.57;;;13.10;99.90;;;;;;4995325;28;20602;-64
2023/06/06 05:02:34;;;;;;;11.77;9.13;;;13.20;99.90;;;;;;4989205;28;20906;-63
2023/06/06 05:05:04;;;;;;;12.30;9.67;;;13.30;99.90;;;;;;4994912;28;20487;-64
2023/06/06 05:07:32;;;;;;;11.73;9.83;;;13.30;99.90;;;;;;4992493;28;20500;-64
2023/06/06 05:10:00;;;;;;;11.70;9.30;;;13.40;99.90;;;;;;5000037;28;20495;-64
2023/06/06 05:12:28;;;;;;;13.00;9.97;;;13.30;99.90;;;;;;4994508;28;20497;-63
2023/06/06 05:14:56;;;;;;;10.30;9.30;;;13.40;99.90;;;;;;4999255;28;20469;-63
2023/06/06 05:17:26;;;;;;;10.10;9.10;;;13.40;99.90;;;;;;4989351;28;20476;-64
2023/06/06 05:19:55;;;;;;;15.57;10.17;;;13.50;99.90;;;;;;4992854;28;21623;-64
2023/06/06 05:22:24;;;;;;;12.90;9.70;;;13.50;99.90;;;;;;4993697;28;20492;-64
2023/06/06 05:24:52;;;;;;;12.23;10.00;;;13.70;99.90;;;;;;5018534;28;20457;-64
2023/06/06 05:27:20;;;;;;;14.37;9.70;;;13.70;99.90;;;;;;5011148;28;20499;-64
2023/06/06 05:29:48;;;;;;;15.00;10.27;;;13.80;99.90;;;;;;4992044;28;20525;-64
2023/06/06 05:32:16;;;;;;;16.00;9.27;;;13.90;99.90;;;;;;4992527;28;20587;-64
2023/06/06 05:34:44;;;;;;;17.70;10.00;;;13.90;99.90;;;;;;4993742;28;20480;-64
2023/06/06 05:37:12;;;;;;;12.20;8.80;;;14.00;99.90;;;;;;4992103;28;20692;-64
2023/06/06 05:39:42;;;;;;;10.47;9.37;;;14.00;99.90;;;;;;4995288;28;20464;-64
2023/06/06 05:42:10;;;;;;;10.27;9.07;;;14.10;99.90;;;;;;4995658;28;20510;-64
2023/06/06 05:44:38;;;;;;;10.60;9.10;;;14.20;99.90;;;;;;4996065;28;20568;-64
2023/06/06 05:47:06;;;;;;;12.80;8.90;;;14.30;99.90;;;;;;4995072;28;20665;-64
2023/06/06 05:49:34;;;;;;;13.90;8.30;;;14.30;99.90;;;;;;4996670;28;20517;-63
2023/06/06 05:52:02;;;;;;;10.80;8.13;;;14.40;99.90;;;;;;4996520;28;20551;-64
2023/06/06 05:54:30;;;;;;;9.23;8.17;;;14.50;99.90;;;;;;5000570;28;20476;-64
2023/06/06 05:57:23;;;;;;;8.93;7.50;;;14.60;99.90;;;;;;4997864;28;20519;-64
2023/06/06 05:59:51;;;;;;;10.63;8.13;;;14.70;99.90;;;;;;5000576;28;21065;-64
2023/06/06 06:02:20;;;;;;;8.70;7.20;;;14.80;99.90;;;;;;4997487;28;20496;-64
2023/06/06 06:04:52;;;;;;;6.90;6.30;;;14.90;99.90;;;;;;4992970;28;20622;-64
2023/06/06 06:07:22;;;;;;;6.87;6.27;;;15.00;99.90;;;;;;4999370;28;21024;-64
2023/06/06 06:09:50;;;;;;;6.97;5.63;;;15.00;99.90;;;;;;4997468;28;20498;-64
2023/06/06 06:12:19;;;;;;;8.63;6.00;;;15.10;99.90;;;;;;4996978;28;20531;-64
2023/06/06 06:14:48;;;;;;;6.00;5.50;;;15.20;99.90;;;;;;4993526;28;20507;-64
2023/06/06 06:17:16;;;;;;;6.10;5.50;;;15.30;99.90;;;;;;4998792;28;20472;-64
2023/06/06 06:19:44;;;;;;;6.50;5.90;;;15.40;99.90;;;;;;4996678;28;20473;-64
2023/06/06 06:22:12;;;;;;;7.80;5.90;;;15.40;99.90;;;;;;4995161;28;20874;-64
2023/06/06 06:24:40;;;;;;;7.33;5.77;;;15.50;99.90;;;;;;4995866;28;20576;-64
2023/06/06 06:27:08;;;;;;;6.77;5.60;;;15.60;99.90;;;;;;4996320;28;20505;-64
2023/06/06 06:29:36;;;;;;;6.80;5.47;;;15.60;99.90;;;;;;4997526;28;20564;-64
2023/06/06 06:32:06;;;;;;;7.03;6.33;;;15.70;99.90;;;;;;4996205;28;20693;-64
2023/06/06 06:34:34;;;;;;;5.33;4.90;;;15.80;99.90;;;;;;4998600;28;20469;-64
2023/06/06 06:37:02;;;;;;;6.03;4.80;;;15.90;99.90;;;;;;4985558;28;20473;-64
2023/06/06 06:39:30;;;;;;;4.50;4.10;;;16.10;99.90;;;;;;4998236;28;20476;-64
2023/06/06 06:41:58;;;;;;;5.63;4.90;;;16.20;99.90;;;;;;4992600;28;20489;-64
2023/06/06 06:44:28;;;;;;;5.10;4.67;;;16.30;99.90;;;;;;4998109;28;20886;-67
2023/06/06 06:46:56;;;;;;;5.43;4.80;;;16.40;99.90;;;;;;5002543;28;20535;-64
2023/06/06 06:49:26;;;;;;;6.47;4.47;;;16.50;99.90;;;;;;5017924;28;20567;-63
2023/06/06 06:51:54;;;;;;;7.10;4.90;;;16.60;99.90;;;;;;5003528;28;20497;-64
2023/06/06 06:54:24;;;;;;;5.30;4.80;;;16.60;99.90;;;;;;5001159;28;21007;-64
2023/06/06 06:56:53;;;;;;;5.83;4.80;;;16.70;99.90;;;;;;4997344;28;20476;-64
2023/06/06 06:59:21;;;;;;;5.60;5.10;;;16.70;99.90;;;;;;4997300;28;20464;-64
2023/06/06 07:01:49;;;;;;;5.33;4.90;;;16.80;99.90;;;;;;4992161;28;20699;-64
2023/06/06 07:04:17;;;;;;;5.73;5.10;;;16.90;99.90;;;;;;4996579;28;20480;-64
2023/06/06 07:06:47;;;;;;;5.50;4.83;;;17.00;99.90;;;;;;4990379;28;20530;-64
2023/06/06 07:09:16;;;;;;;6.00;5.50;;;17.10;99.90;;;;;;4998530;28;20555;-64
2023/06/06 07:11:45;;;;;;;5.70;5.13;;;17.10;99.90;;;;;;4994907;28;20503;-64
2023/06/06 07:14:13;;;;;;;7.30;5.57;;;17.20;99.90;;;;;;4997012;28;20502;-64
2023/06/06 07:16:41;;;;;;;5.90;5.37;;;17.20;99.90;;;;;;4992362;28;20823;-63
2023/06/06 07:19:10;;;;;;;7.67;5.43;;;17.30;99.90;;;;;;4995487;28;20477;-63
2023/06/06 07:21:38;;;;;;;7.07;5.00;;;17.40;99.90;;;;;;4996810;28;20499;-63
2023/06/06 07:24:07;;;;;;;5.17;4.67;;;17.40;99.90;;;;;;4995891;28;20494;-64
2023/06/06 07:26:36;;;;;;;4.97;4.47;;;17.60;99.90;;;;;;5007397;28;20469;-68
2023/06/06 07:29:04;;;;;;;6.30;4.83;;;17.70;99.90;;;;;;5009814;28;20491;-63
2023/06/06 07:31:33;;;;;;;5.90;4.47;;;17.80;99.90;;;;;;4997349;28;20560;-64
2023/06/06 07:34:02;;;;;;;6.50;4.37;;;17.90;99.90;;;;;;4979679;28;20849;-64
2023/06/06 07:36:30;;;;;;;5.80;4.70;;;18.00;99.90;;;;;;4987400;28;20469;-70
2023/06/06 07:38:58;;;;;;;5.30;4.80;;;18.10;99.90;;;;;;4992700;28;21125;-64
2023/06/06 07:41:29;;;;;;;5.10;4.20;;;18.20;99.90;;;;;;4996634;28;20496;-68
2023/06/06 07:43:57;;;;;;;4.50;4.10;;;18.20;99.90;;;;;;4993816;28;20925;-64
2023/06/06 07:46:25;;;;;;;5.40;4.30;;;18.30;99.90;;;;;;4997444;28;20798;-64
2023/06/06 07:48:53;;;;;;;4.47;4.03;;;18.40;99.90;;;;;;5002098;28;20551;-64
2023/06/06 07:51:21;;;;;;;5.10;4.60;;;18.50;99.90;;;;;;5001414;28;20477;-64
2023/06/06 07:53:50;;;;;;;5.00;3.90;;;18.60;99.90;;;;;;5002129;28;20503;-64
2023/06/06 07:56:18;;;;;;;5.03;4.53;;;18.70;99.90;;;;;;4995885;28;20522;-64
2023/06/06 07:58:52;;;;;;;5.30;3.97;;;18.70;99.90;;;;;;4999952;28;20499;-64
2023/06/06 08:01:21;;;;;;;5.20;4.40;;;18.80;99.90;;;;;;4997346;28;20491;-64
2023/06/06 08:03:50;;;;;;;6.10;4.27;;;18.90;99.90;;;;;;5002222;28;20618;-64
2023/06/06 08:06:18;;;;;;;4.47;3.90;;;18.90;99.90;;;;;;5002238;28;20942;-64
2023/06/06 08:08:48;;;;;;;5.10;4.03;;;18.90;99.90;;;;;;5003718;28;20480;-64
2023/06/06 08:11:17;;;;;;;4.93;4.07;;;19.00;99.90;;;;;;4998844;28;21153;-64
2023/06/06 08:13:46;;;;;;;3.90;3.60;;;19.10;99.90;;;;;;4998176;28;20493;-64
2023/06/06 08:16:14;;;;;;;4.50;3.87;;;19.20;99.90;;;;;;5001545;28;20468;-64
2023/06/06 08:18:42;;;;;;;6.27;4.23;;;19.20;99.90;;;;;;5001586;28;20504;-66
2023/06/06 08:21:11;;;;;;;4.97;4.47;;;19.30;99.90;;;;;;5001171;28;22466;-64
2023/06/06 08:23:39;;;;;;;4.00;3.70;;;19.40;99.90;;;;;;5000923;28;20494;-65
2023/06/06 08:26:07;;;;;;;5.13;4.00;;;19.40;99.90;;;;;;4997812;28;20472;-64
2023/06/06 08:28:35;;;;;;;5.00;4.00;;;19.50;99.90;;;;;;4992535;28;20503;-64
2023/06/06 08:31:04;;;;;;;3.97;3.60;;;19.50;99.90;;;;;;5000978;28;20473;-65
2023/06/06 08:33:32;;;;;;;4.63;4.23;;;19.60;99.90;;;;;;4997507;28;20583;-64
2023/06/06 08:36:00;;;;;;;4.40;3.73;;;19.70;99.90;;;;;;4997859;28;21066;-64
2023/06/06 08:38:31;;;;;;;4.47;3.83;;;19.80;99.90;;;;;;4997005;28;20541;-63
2023/06/06 08:41:02;;;;;;;5.47;4.00;;;19.80;99.90;;;;;;5000119;28;20472;-64
2023/06/06 08:43:36;;;;;;;4.10;3.80;;;19.90;99.90;;;;;;5000419;28;20546;-64
2023/06/06 08:46:06;;;;;;;6.57;4.10;;;19.90;99.90;;;;;;5008464;28;20465;-64
2023/06/06 08:48:35;;;;;;;4.13;3.73;;;20.00;99.90;;;;;;5007571;28;20481;-64
2023/06/06 08:51:05;;;;;;;3.57;3.27;;;20.10;99.90;;;;;;4998716;28;20504;-64
2023/06/06 08:53:34;;;;;;;5.70;3.60;;;20.20;99.90;;;;;;5000187;28;20492;-64
2023/06/06 08:56:02;;;;;;;4.67;3.80;;;20.30;99.90;;;;;;4998901;28;20963;-64
2023/06/06 08:58:31;;;;;;;4.03;3.63;;;20.50;99.90;;;;;;5000104;28;20472;-63
2023/06/06 09:01:00;;;;;;;4.03;3.50;;;20.60;99.90;;;;;;4996960;28;20990;-65
2023/06/06 09:03:31;;;;;;;4.60;3.47;;;20.60;99.90;;;;;;4995965;28;20555;-64
2023/06/06 09:06:05;;;;;;;4.00;3.67;;;20.60;99.90;;;;;;5001094;28;20956;-65
2023/06/06 09:08:33;;;;;;;3.70;3.40;;;20.80;99.90;;;;;;5003192;28;20472;-65
2023/06/06 09:11:01;;;;;;;4.23;3.83;;;20.90;99.90;;;;;;4999792;28;20481;-65
2023/06/06 09:13:30;;;;;;;4.40;3.90;;;21.00;99.90;;;;;;5001968;28;20493;-64
2023/06/06 09:15:57;;;;;;;3.57;3.27;;;21.00;99.90;;;;;;5000082;28;20974;-64
2023/06/06 09:18:30;;;;;;;4.10;3.70;;;21.10;99.90;;;;;;5000960;28;20476;-65
2023/06/06 09:20:58;;;;;;;3.77;3.43;;;21.20;99.90;;;;;;4998298;28;21075;-65
2023/06/06 09:23:30;;;;;;;3.90;2.97;;;21.30;99.90;;;;;;5011609;28;20754;-65
2023/06/06 09:25:59;;;;;;;4.27;3.57;;;21.30;99.90;;;;;;5014515;28;20470;-65
2023/06/06 09:28:37;;;;;;;3.93;3.60;;;21.50;99.90;;;;;;5002522;28;20460;-65
2023/06/06 09:31:29;;;;;;;3.60;3.30;;;21.60;99.90;;;;;;4995028;28;20559;-64
2023/06/06 09:34:00;;;;;;;3.77;3.47;;;21.60;99.90;;;;;;5005729;28;20532;-65
2023/06/06 09:36:29;;;;;;;3.80;3.50;;;21.70;99.90;;;;;;5019436;28;20479;-64
2023/06/06 09:39:06;;;;;;;4.00;3.60;;;21.70;99.90;;;;;;5013125;28;20473;-64
2023/06/06 09:41:40;;;;;;;4.13;3.70;;;21.60;99.90;;;;;;4999127;28;21017;-64
2023/06/06 09:44:20;;;;;;;6.40;3.80;;;21.60;99.90;;;;;;4999160;28;20479;-64
2023/06/06 09:46:48;;;;;;;3.60;3.30;;;21.70;99.90;;;;;;4999848;28;20627;-65
2023/06/06 09:49:20;;;;;;;4.17;3.40;;;21.70;99.90;;;;;;4999582;28;20559;-64
2023/06/06 09:51:48;;;;;;;3.90;3.60;;;21.80;99.90;;;;;;4993273;28;20572;-64
2023/06/06 09:54:17;;;;;;;5.53;3.80;;;21.80;99.90;;;;;;4998155;28;20851;-65
2023/06/06 09:56:49;;;;;;;5.17;3.37;;;21.90;99.90;;;;;;4998109;28;20901;-64
2023/06/06 09:59:17;;;;;;;4.70;3.13;;;22.00;99.90;;;;;;4992863;28;21001;-65
2023/06/06 10:01:48;;;;;;;2.90;2.70;;;22.00;99.90;;;;;;4995147;28;21087;-64
2023/06/06 10:04:18;;;;;;;3.27;2.97;;;22.00;99.90;;;;;;4997842;28;20480;-64
2023/06/06 10:06:47;;;;;;;3.00;2.80;;;22.00;99.90;;;;;;4998259;28;20481;-64
2023/06/06 10:09:17;;;;;;;4.63;3.40;;;22.10;99.90;;;;;;5000067;28;20552;-65
2023/06/06 10:11:47;;;;;;;5.37;3.87;;;22.10;99.90;;;;;;4993857;28;20492;-64
2023/06/06 10:14:15;;;;;;;3.90;3.63;;;22.30;99.90;;;;;;4995928;28;20519;-64
2023/06/06 10:16:43;;;;;;;3.97;3.67;;;22.40;99.90;;;;;;4993400;28;20468;-65
2023/06/06 10:19:14;;;;;;;5.27;3.50;;;22.60;99.90;;;;;;5001030;28;20484;-64
2023/06/06 10:21:45;;;;;;;3.77;3.47;;;22.70;99.90;;;;;;4988202;28;20682;-64
2023/06/06 10:24:16;;;;;;;3.17;2.90;;;22.80;99.90;;;;;;4998634;28;20539;-64
2023/06/06 10:26:51;;;;;;;4.70;3.73;;;22.90;99.90;;;;;;4999675;28;20468;-64
2023/06/06 10:29:28;;;;;;;3.80;3.50;;;23.10;99.90;;;;;;4998074;28;21024;-64
2023/06/06 10:31:59;;;;;;;5.27;3.83;;;23.20;99.90;;;;;;4997084;28;20499;-64
2023/06/06 10:34:32;;;;;;;4.23;3.70;;;23.40;99.90;;;;;;4998433;28;20480;-64
2023/06/06 10:37:15;;;;;;;5.30;3.63;;;23.40;99.90;;;;;;4996859;28;20520;-64
2023/06/06 10:39:47;;;;;;;3.90;3.50;;;23.50;98.30;;;;;;4989654;28;21822;-64
2023/06/06 10:42:16;;;;;;;4.40;3.67;;;23.40;99.60;;;;;;4994861;28;20905;-64
2023/06/06 10:44:55;;;;;;;4.93;4.27;;;23.40;99.90;;;;;;4999484;28;20603;-64
2023/06/06 10:47:28;;;;;;;4.40;4.00;;;23.40;99.90;;;;;;4996513;28;20587;-64
2023/06/06 10:50:23;;;;;;;6.00;4.33;;;23.50;99.10;;;;;;4993946;28;21008;-64
2023/06/06 10:52:56;;;;;;;3.87;3.47;;;23.60;98.30;;;;;;4991025;28;20909;-64
2023/06/06 10:55:44;;;;;;;4.20;3.80;;;23.60;98.70;;;;;;4994852;28;20516;-64
2023/06/06 10:58:21;;;;;;;4.00;3.60;;;23.60;99.90;;;;;;4996460;28;20485;-64
2023/06/06 11:00:50;;;;;;;3.87;3.57;;;23.80;99.90;;;;;;4998073;28;21039;-65
2023/06/06 11:03:22;;;;;;;4.10;3.70;;;23.90;99.90;;;;;;4996854;28;20533;-64
2023/06/06 11:06:11;;;;;;;3.80;3.50;;;24.10;99.90;;;;;;4998484;28;20468;-64
2023/06/06 11:08:44;;;;;;;3.73;3.43;;;24.20;99.90;;;;;;4997770;28;20483;-64
2023/06/06 11:11:21;;;;;;;4.37;3.97;;;24.20;97.90;;;;;;4996928;28;20579;-64
2023/06/06 11:13:56;;;;;;;3.87;3.57;;;24.20;94.20;;;;;;4992770;28;20488;-64
2023/06/06 11:16:51;;;;;;;4.17;3.80;;;24.20;99.90;;;;;;4998570;28;20483;-64
2023/06/06 11:19:21;;;;;;;4.40;3.50;;;24.40;99.70;;;;;;4988692;28;20568;-64
2023/06/06 11:21:51;;;;;;;3.60;3.30;;;24.50;96.50;;;;;;4982667;28;20837;-64
2023/06/06 11:24:20;;;;;;;4.10;3.27;;;24.60;94.20;;;;;;4983768;28;21411;-65
2023/06/06 11:26:51;;;;;;;3.70;3.40;;;24.60;92.30;;;;;;4989360;28;20503;-64
2023/06/06 11:29:20;;;;;;;4.47;4.10;;;24.70;98.60;;;;;;4992035;28;20464;-64
2023/06/06 11:31:49;;;;;;;4.20;3.77;;;24.90;96.50;;;;;;4989243;28;20497;-64
2023/06/06 11:34:17;;;;;;;5.73;3.87;;;24.90;84.20;;;;;;4993159;28;20462;-65
2023/06/06 11:36:47;;;;;;;3.80;3.50;;;24.80;96.20;;;;;;4995438;28;20476;-64
2023/06/06 11:39:16;;;;;;;4.53;4.10;;;24.90;92.70;;;;;;5001806;28;20464;-63
2023/06/06 11:41:47;;;;;;;6.27;3.57;;;24.90;81.50;;;;;;5013603;28;21124;-64
2023/06/06 11:44:17;;;;;;;3.70;3.30;;;24.90;91.10;;;;;;4994838;28;20493;-64
2023/06/06 11:46:47;;;;;;;4.07;3.40;;;25.20;93.40;;;;;;5001835;28;20491;-68
2023/06/06 11:49:16;;;;;;;4.10;3.70;;;25.30;81.10;;;;;;5005522;28;20489;-63
2023/06/06 11:51:54;;;;;;;4.00;3.53;;;25.30;76.10;;;;;;5010001;28;20489;-65
2023/06/06 11:54:21;;;;;;;4.40;3.43;;;25.20;74.10;;;;;;5007337;28;20495;-64
2023/06/06 11:56:55;;;;;;;3.70;3.40;;;25.40;81.80;;;;;;5011438;28;20500;-65
2023/06/06 11:59:24;;;;;;;3.87;3.50;;;25.50;84.20;;;;;;5011580;28;20568;-64
2023/06/06 12:01:54;;;;;;;3.40;3.10;;;25.70;85.40;;;;;;5007397;28;20502;-64
2023/06/06 12:04:22;;;;;;;3.87;3.30;;;25.90;91.00;;;;;;5006798;28;20531;-64
2023/06/06 12:06:52;;;;;;;5.10;3.90;;;26.10;70.70;;;;;;5004427;28;20511;-64
2023/06/06 12:09:20;;;;;;;4.80;3.40;;;26.10;68.00;;;;;;5001196;28;20551;-64
2023/06/06 12:11:55;;;;;;;5.40;4.47;;;26.20;72.10;;;;;;5000845;28;20492;-64
2023/06/06 12:14:25;;;;;;;6.27;4.00;;;26.30;72.20;;;;;;4999576;28;20476;-64
2023/06/06 12:17:03;;;;;;;4.00;3.70;;;26.40;78.40;;;;;;4993825;28;20468;-64
2023/06/06 12:19:31;;;;;;;3.50;3.20;;;26.50;63.50;;;;;;4994774;28;20541;-64
2023/06/06 12:21:59;;;;;;;3.70;3.50;;;26.50;58.60;;;;;;4993539;28;20570;-64
2023/06/06 12:24:29;;;;;;;4.07;3.40;;;26.30;57.60;;;;;;4990935;28;20947;-63
2023/06/06 12:27:00;;;;;;;4.23;3.60;;;26.10;65.20;;;;;;4995037;28;20500;-64
2023/06/06 12:29:30;;;;;;;3.50;3.20;;;25.90;76.00;;;;;;4981027;28;21964;-64
2023/06/06 12:32:14;;;;;;;6.53;3.30;;;25.90;67.10;;;;;;4995952;28;20481;-64
2023/06/06 12:34:44;;;;;;;4.23;3.83;;;26.10;72.20;;;;;;4996443;28;20953;-65
2023/06/06 12:37:13;;;;;;;3.90;3.50;;;26.30;74.30;;;;;;4991572;28;20542;-65
2023/06/06 12:39:41;;;;;;;4.50;3.40;;;26.50;64.50;;;;;;4992712;28;20472;-64
2023/06/06 12:42:15;;;;;;;3.43;3.20;;;26.50;63.10;;;;;;4989983;28;20523;-66
2023/06/06 12:44:43;;;;;;;3.50;3.20;;;26.40;63.20;;;;;;4998690;28;20571;-65
2023/06/06 12:47:13;;;;;;;4.70;3.67;;;26.30;67.10;;;;;;4999956;28;20479;-65
2023/06/06 12:49:42;;;;;;;3.87;3.60;;;26.40;66.60;;;;;;4978025;28;20523;-65
2023/06/06 12:52:11;;;;;;;3.57;3.27;;;26.60;67.70;;;;;;4995899;28;20497;-65
2023/06/06 12:54:41;;;;;;;3.93;3.53;;;26.80;58.30;;;;;;4998205;28;20896;-64
2023/06/06 12:57:10;;;;;;;4.10;3.70;;;26.90;59.20;;;;;;4992681;28;20526;-64
2023/06/06 12:59:41;;;;;;;3.60;3.30;;;26.90;55.30;;;;;;4996976;28;20476;-64